Time;durP1;ratioP1;P1;durP2;ratioP2;P2;SDS_P1;SDS_P2;PMS_P1;PMS_P2;Temp;Humidity;BMP_temperature;BMP_pressure;BME280_temperature;BME280_humidity;BME280_pressure;Samples;Min_cycle;Max_cycle;Signal;HPM_P1;HPM_P2
2021/06/04 00:01:26;;;;;;;6.50;2.70;;;;;;;13.94;100.00;94300.63;5073544;28;20203;-75
2021/06/04 00:03:53;;;;;;;5.17;2.83;;;;;;;13.88;100.00;94304.06;5073283;28;20222;-74
2021/06/04 00:06:20;;;;;;;7.20;2.92;;;;;;;13.79;100.00;94302.66;5073374;28;20210;-75
2021/06/04 00:08:48;;;;;;;8.17;2.97;;;;;;;13.92;100.00;94301.81;5073157;28;20249;-74
2021/06/04 00:11:19;;;;;;;3.63;2.70;;;;;;;13.84;100.00;94305.50;5073014;28;20565;-74
2021/06/04 00:13:48;;;;;;;5.50;2.63;;;;;;;13.78;100.00;94306.31;5073079;28;20553;-74
2021/06/04 00:16:16;;;;;;;5.65;2.70;;;;;;;13.74;100.00;94302.50;5073160;28;20202;-74
2021/06/04 00:18:45;;;;;;;5.23;2.60;;;;;;;13.64;100.00;94301.13;5073165;28;20253;-76
2021/06/04 00:21:14;;;;;;;8.27;2.92;;;;;;;13.62;100.00;94302.31;5073018;28;20195;-74
2021/06/04 00:23:41;;;;;;;4.47;3.07;;;;;;;13.58;100.00;94296.69;5072711;28;20257;-74
2021/06/04 00:26:08;;;;;;;5.57;3.07;;;;;;;13.60;100.00;94299.91;5072836;28;20570;-74
2021/06/04 00:28:34;;;;;;;4.83;2.60;;;;;;;13.58;100.00;94296.69;5072753;28;20654;-74
2021/06/04 00:31:01;;;;;;;10.37;3.20;;;;;;;13.59;100.00;94306.19;5073044;28;20206;-74
2021/06/04 00:33:27;;;;;;;5.27;2.73;;;;;;;13.67;100.00;94305.13;5073016;28;20198;-74
2021/06/04 00:35:54;;;;;;;3.97;2.70;;;;;;;13.60;100.00;94302.53;5072936;28;20202;-75
2021/06/04 00:38:20;;;;;;;5.47;2.90;;;;;;;13.42;100.00;94299.75;5072608;28;20250;-74
2021/06/04 00:40:49;;;;;;;7.23;2.97;;;;;;;13.26;100.00;94299.13;5073110;28;20234;-74
2021/06/04 00:43:16;;;;;;;5.30;2.80;;;;;;;13.13;100.00;94304.41;5075403;28;20207;-75
2021/06/04 00:45:47;;;;;;;5.20;2.50;;;;;;;13.28;100.00;94294.50;5074387;28;20198;-74
2021/06/04 00:48:14;;;;;;;4.50;2.83;;;;;;;13.39;100.00;94295.72;5079556;28;20209;-75
2021/06/04 00:50:47;;;;;;;6.70;2.73;;;;;;;13.44;100.00;94301.16;5079328;28;20653;-75
2021/06/04 00:53:16;;;;;;;6.47;2.60;;;;;;;13.50;100.00;94299.53;5079439;28;20691;-75
2021/06/04 00:55:43;;;;;;;6.40;2.50;;;;;;;13.56;100.00;94295.28;5079459;28;20754;-75
2021/06/04 00:58:13;;;;;;;5.20;2.53;;;;;;;13.48;100.00;94288.44;5079391;28;20218;-74
2021/06/04 01:00:42;;;;;;;7.17;2.30;;;;;;;13.43;100.00;94290.88;5079446;28;20217;-74
2021/06/04 01:03:09;;;;;;;7.53;2.50;;;;;;;13.38;100.00;94290.69;5079594;28;20199;-74
2021/06/04 01:05:38;;;;;;;6.37;2.73;;;;;;;13.32;100.00;94293.13;5079239;28;20281;-75
2021/06/04 01:08:25;;;;;;;7.97;2.80;;;;;;;13.30;100.00;94283.78;5079379;28;20202;-76
2021/06/04 01:11:06;;;;;;;4.83;2.90;;;;;;;13.17;100.00;94292.47;5079171;28;20666;-75
2021/06/04 01:13:40;;;;;;;5.83;2.30;;;;;;;13.12;100.00;94289.66;5079226;28;20198;-74
2021/06/04 01:16:11;;;;;;;4.80;2.60;;;;;;;13.05;100.00;94291.50;5079264;28;20202;-74
2021/06/04 01:18:50;;;;;;;7.13;3.00;;;;;;;13.01;100.00;94287.69;5078507;28;20464;-74
2021/06/04 01:21:22;;;;;;;4.90;2.70;;;;;;;12.94;100.00;94290.31;5079138;28;20445;-75
2021/06/04 01:24:02;;;;;;;6.17;3.30;;;;;;;12.89;100.00;94283.03;5078922;28;20623;-73
2021/06/04 01:26:32;;;;;;;7.50;2.50;;;;;;;12.87;100.00;94292.09;5078970;28;20204;-73
2021/06/04 01:29:05;;;;;;;5.23;2.77;;;;;;;12.98;100.00;94290.69;5079202;28;20199;-73
2021/06/04 01:31:37;;;;;;;7.30;3.23;;;;;;;12.94;100.00;94292.94;5078877;28;20199;-75
2021/06/04 01:34:06;;;;;;;5.90;2.70;;;;;;;12.92;100.00;94298.38;5079041;28;20198;-75
2021/06/04 01:36:38;;;;;;;7.50;2.73;;;;;;;12.90;100.00;94291.69;5078929;28;20191;-75
2021/06/04 01:39:10;;;;;;;4.47;2.77;;;;;;;12.94;100.00;94291.09;5079252;28;20230;-74
2021/06/04 01:41:40;;;;;;;6.27;2.67;;;;;;;13.02;100.00;94297.13;5079129;28;20224;-76
2021/06/04 01:44:10;;;;;;;6.13;3.07;;;;;;;13.05;100.00;94296.72;5078925;28;20203;-75
2021/06/04 01:46:40;;;;;;;5.77;3.00;;;;;;;13.05;100.00;94291.50;5078985;28;20214;-74
2021/06/04 01:49:12;;;;;;;5.40;2.63;;;;;;;13.09;100.00;94297.94;5078709;28;20202;-74
2021/06/04 01:51:40;;;;;;;7.00;3.17;;;;;;;13.16;100.00;94290.88;5079153;28;20202;-73
2021/06/04 01:54:10;;;;;;;6.83;2.67;;;;;;;13.14;100.00;94298.94;5078881;28;20207;-74
2021/06/04 01:56:41;;;;;;;5.67;3.00;;;;;;;13.08;100.00;94298.97;5078659;28;20202;-75
2021/06/04 01:59:12;;;;;;;11.15;3.10;;;;;;;13.01;100.00;94301.59;5074508;28;20495;-76
2021/06/04 02:01:42;;;;;;;6.73;2.70;;;;;;;13.06;100.00;94293.91;5075549;28;20203;-75
2021/06/04 02:04:11;;;;;;;7.97;3.17;;;;;;;13.02;100.00;94292.69;5075682;28;20203;-74
2021/06/04 02:06:38;;;;;;;6.60;2.80;;;;;;;13.07;100.00;94294.72;5075438;28;20644;-75
2021/06/04 02:09:08;;;;;;;6.40;2.70;;;;;;;13.08;100.00;94291.88;5075479;28;20202;-74
2021/06/04 02:11:35;;;;;;;6.67;2.87;;;;;;;13.06;100.00;94293.13;5075490;28;20199;-74
2021/06/04 02:14:07;;;;;;;5.40;2.80;;;;;;;13.09;100.00;94296.13;5075315;28;20195;-76
2021/06/04 02:16:45;;;;;;;4.57;3.10;;;;;;;13.06;100.00;94293.13;5075533;28;20279;-74
2021/06/04 02:19:20;;;;;;;7.87;3.00;;;;;;;13.04;100.00;94292.50;5075333;28;20790;-75
2021/06/04 02:22:06;;;;;;;8.37;3.63;;;;;;;12.97;100.00;94292.50;5075166;28;20676;-74
2021/06/04 02:24:40;;;;;;;8.23;3.23;;;;;;;12.89;100.00;94282.22;5074872;28;20639;-74
2021/06/04 02:27:12;;;;;;;6.00;2.93;;;;;;;12.77;100.00;94295.13;5075338;28;20194;-74
2021/06/04 02:29:43;;;;;;;6.43;3.03;;;;;;;12.74;100.00;94293.72;5075230;28;20207;-73
2021/06/04 02:32:15;;;;;;;4.07;2.67;;;;;;;12.65;100.00;94286.25;5075159;28;20236;-74
2021/06/04 02:34:45;;;;;;;6.90;2.97;;;;;;;12.72;100.00;94293.13;5075061;28;20199;-74
2021/06/04 02:37:16;;;;;;;6.30;3.03;;;;;;;12.81;100.00;94298.97;5074885;28;20202;-76
2021/06/04 02:39:46;;;;;;;11.37;3.60;;;;;;;12.88;100.00;94294.50;5074961;28;20230;-75
2021/06/04 02:42:17;;;;;;;4.23;2.80;;;;;;;12.88;100.00;94291.91;5074964;28;20230;-75
2021/06/04 02:44:48;;;;;;;6.63;3.23;;;;;;;12.90;100.00;94291.69;5074863;28;20206;-75
2021/06/04 02:47:17;;;;;;;5.67;3.10;;;;;;;12.89;100.00;94283.03;5074847;28;20195;-74
2021/06/04 02:49:44;;;;;;;7.83;3.27;;;;;;;12.92;100.00;94293.13;5074526;28;20203;-75
2021/06/04 02:52:25;;;;;;;3.83;3.00;;;;;;;12.95;100.00;94282.22;5076417;28;20251;-75
2021/06/04 02:54:52;;;;;;;6.97;3.20;;;;;;;12.93;100.00;94293.91;5074759;28;20206;-74
2021/06/04 02:57:21;;;;;;;5.00;2.90;;;;;;;12.92;100.00;94298.38;5074792;28;20202;-74
2021/06/04 02:59:49;;;;;;;4.83;3.17;;;;;;;12.94;100.00;94298.16;5074366;28;20235;-75
2021/06/04 03:02:19;;;;;;;4.77;2.90;;;;;;;12.99;100.00;94302.78;5074326;28;20294;-74
2021/06/04 03:04:47;;;;;;;5.87;2.90;;;;;;;13.09;100.00;94298.75;5074539;28;20213;-75
2021/06/04 03:07:19;;;;;;;8.70;3.30;;;;;;;13.16;100.00;94306.63;5074605;28;20225;-74
2021/06/04 03:09:46;;;;;;;6.10;3.07;;;;;;;13.20;100.00;94305.19;5073968;28;20214;-75
2021/06/04 03:12:25;;;;;;;3.93;2.87;;;;;;;13.19;100.00;94303.59;5074312;28;20281;-74
2021/06/04 03:14:54;;;;;;;6.03;2.90;;;;;;;13.20;100.00;94294.69;5074469;28;20241;-75
2021/06/04 03:17:26;;;;;;;7.10;3.30;;;;;;;13.22;100.00;94303.19;5074496;28;20566;-74
2021/06/04 03:19:53;;;;;;;7.87;3.23;;;;;;;13.22;100.00;94297.13;5074123;28;20291;-75
2021/06/04 03:22:25;;;;;;;4.03;2.60;;;;;;;13.24;100.00;94316.91;5074099;28;20282;-75
2021/06/04 03:24:52;;;;;;;6.00;3.00;;;;;;;13.22;100.00;94297.94;5073825;28;20261;-76
2021/06/04 03:27:20;;;;;;;5.80;2.63;;;;;;;13.19;100.00;94313.25;5073988;28;20285;-75
2021/06/04 03:29:47;;;;;;;8.80;3.10;;;;;;;13.14;100.00;94312.06;5073748;28;20684;-74
2021/06/04 03:32:16;;;;;;;5.33;3.30;;;;;;;13.10;100.00;94310.84;5073968;28;20194;-76
2021/06/04 03:34:43;;;;;;;3.97;3.13;;;;;;;13.10;100.00;94315.28;5073824;28;20207;-75
2021/06/04 03:37:10;;;;;;;5.63;3.00;;;;;;;13.14;100.00;94324.38;5073796;28;20195;-75
2021/06/04 03:39:39;;;;;;;5.40;2.83;;;;;;;13.08;100.00;94322.56;5073486;28;20821;-74
2021/06/04 03:42:09;;;;;;;5.37;2.70;;;;;;;13.08;100.00;94323.34;5073858;28;20202;-75
2021/06/04 03:44:39;;;;;;;7.90;3.00;;;;;;;13.25;100.00;94318.50;5073714;28;20203;-75
2021/06/04 03:47:05;;;;;;;4.80;2.90;;;;;;;13.20;100.00;94314.88;5073633;28;20229;-75
2021/06/04 03:49:34;;;;;;;7.17;3.10;;;;;;;13.17;100.00;94318.69;5073494;28;20195;-75
2021/06/04 03:52:01;;;;;;;4.67;2.97;;;;;;;13.05;100.00;94315.88;5073324;28;20206;-75
2021/06/04 03:54:30;;;;;;;6.33;2.93;;;;;;;13.08;100.00;94318.09;5073642;28;20260;-75
2021/06/04 03:56:56;;;;;;;9.03;3.03;;;;;;;13.12;100.00;94318.50;5073520;28;20340;-74
2021/06/04 03:59:22;;;;;;;7.77;2.93;;;;;;;13.17;100.00;94321.31;5073392;28;20222;-75
2021/06/04 04:01:51;;;;;;;11.83;3.13;;;;;;;13.24;100.00;94322.16;5073365;28;20207;-75
2021/06/04 04:04:18;;;;;;;7.70;3.03;;;;;;;13.29;100.00;94322.34;5073252;28;20201;-75
2021/06/04 04:06:46;;;;;;;7.13;2.90;;;;;;;13.33;100.00;94320.94;5073115;28;20202;-75
2021/06/04 04:09:14;;;;;;;6.23;3.00;;;;;;;13.26;100.00;94320.13;5073299;28;20207;-74
2021/06/04 04:11:41;;;;;;;5.43;2.80;;;;;;;13.44;100.00;94316.06;5073294;28;20199;-74
2021/06/04 04:14:08;;;;;;;4.50;2.80;;;;;;;13.48;100.00;94320.72;5073137;28;20582;-74
2021/06/04 04:16:35;;;;;;;7.07;3.30;;;;;;;13.58;100.00;94325.53;5073119;28;20199;-74
2021/06/04 04:19:03;;;;;;;4.67;2.97;;;;;;;13.67;100.00;94332.19;5072888;28;20223;-76
2021/06/04 04:21:29;;;;;;;4.27;2.60;;;;;;;13.77;100.00;94330.94;5072546;28;20195;-75
2021/06/04 04:24:01;;;;;;;6.80;2.90;;;;;;;13.95;100.00;94335.53;5072924;28;20230;-74
2021/06/04 04:26:31;;;;;;;5.83;2.50;;;;;;;14.20;100.00;94336.44;5072938;28;20198;-76
2021/06/04 04:29:00;;;;;;;4.55;2.58;;;;;;;14.43;100.00;94335.94;5072859;28;20684;-74
2021/06/04 04:31:29;;;;;;;5.47;2.60;;;;;;;14.68;100.00;94337.06;5072970;28;20202;-75
2021/06/04 04:33:56;;;;;;;7.25;2.70;;;;;;;14.97;100.00;94331.19;5072770;28;20202;-76
2021/06/04 04:36:25;;;;;;;6.05;2.78;;;;;;;15.14;100.00;94336.72;5073056;28;20681;-76
2021/06/04 04:38:51;;;;;;;5.50;2.20;;;;;;;15.31;100.00;94333.56;5072678;28;20689;-75
2021/06/04 04:41:18;;;;;;;5.53;2.15;;;;;;;15.48;100.00;94339.88;5072859;28;20237;-75
2021/06/04 04:43:47;;;;;;;5.47;2.22;;;;;;;15.73;100.00;94339.03;5073042;28;20206;-75
2021/06/04 04:46:15;;;;;;;5.07;2.38;;;;;;;15.79;100.00;94338.19;5072873;28;20202;-75
2021/06/04 04:48:41;;;;;;;4.63;2.45;;;;;;;15.89;100.00;94335.84;5072708;28;20617;-75
2021/06/04 04:51:09;;;;;;;3.78;2.65;;;;;;;16.13;100.00;94340.47;5075287;28;20229;-75
2021/06/04 04:53:35;;;;;;;6.13;2.50;;;;;;;16.39;100.00;94345.41;5072845;28;20691;-75
2021/06/04 04:56:01;;;;;;;5.18;2.40;;;;;;;16.65;100.00;94339.00;5072594;28;20199;-75
2021/06/04 04:58:28;;;;;;;1.92;1.73;;;;;;;16.90;100.00;94332.75;5072642;28;20237;-75
2021/06/04 05:00:56;;;;;;;6.85;2.30;;;;;;;16.96;100.00;94326.59;5072527;28;20198;-75
2021/06/04 05:03:23;;;;;;;3.40;2.05;;;;;;;17.17;100.00;94329.75;5072797;28;20225;-75
2021/06/04 05:05:49;;;;;;;8.07;2.17;;;;;;;17.18;100.00;94326.84;5072685;28;20260;-75
2021/06/04 05:08:16;;;;;;;3.35;2.00;;;;;;;17.21;100.00;94333.53;5072601;28;20202;-75
2021/06/04 05:10:42;;;;;;;6.15;2.10;;;;;;;17.27;100.00;94332.63;5072598;28;20298;-75
2021/06/04 05:13:09;;;;;;;5.47;2.53;;;;;;;17.31;100.00;94335.59;5072516;28;20203;-76
2021/06/04 05:15:38;;;;;;;4.65;1.85;;;;;;;17.35;100.00;94329.66;5072321;28;20199;-76
2021/06/04 05:18:05;;;;;;;8.00;2.22;;;;;;;17.60;100.00;94325.16;5072686;28;20302;-76
2021/06/04 05:20:31;;;;;;;3.47;1.80;;;;;;;17.78;100.00;94332.16;5072169;28;20587;-76
2021/06/04 05:22:58;;;;;;;5.40;1.83;;;;;;;18.10;100.00;94336.06;5072341;28;20313;-75
2021/06/04 05:25:28;;;;;;;2.83;1.90;;;;;;;18.60;100.00;94331.16;5072494;28;20210;-75
2021/06/04 05:27:54;;;;;;;3.88;2.10;;;;;;;18.62;100.00;94329.13;5072222;28;20203;-75
2021/06/04 05:30:24;;;;;;;3.67;2.25;;;;;;;18.76;100.00;94330.41;5072501;28;20554;-75
2021/06/04 05:32:52;;;;;;;3.00;1.88;;;;;;;19.02;100.00;94333.53;5074778;28;20210;-75
2021/06/04 05:35:18;;;;;;;4.00;1.90;;;;;;;19.29;100.00;94333.72;5075981;28;20661;-75
2021/06/04 05:37:45;;;;;;;5.18;1.92;;;;;;;20.41;96.22;94330.22;5076078;28;20210;-75
2021/06/04 05:40:14;;;;;;;5.63;1.65;;;;;;;22.22;84.73;94328.00;5075897;28;20239;-75
2021/06/04 05:42:41;;;;;;;7.22;1.38;;;;;;;24.14;74.83;94334.84;5075891;28;20245;-75
2021/06/04 05:45:08;;;;;;;4.55;1.67;;;;;;;25.62;69.51;94337.00;5075937;28;20203;-74
2021/06/04 05:47:34;;;;;;;3.97;1.45;;;;;;;27.06;63.54;94336.22;5075774;28;20585;-75
2021/06/04 05:50:02;;;;;;;3.55;1.70;;;;;;;27.69;61.17;94342.22;5075873;28;20194;-75
2021/06/04 05:52:28;;;;;;;5.25;1.50;;;;;;;27.48;61.25;94334.53;5075760;28;20293;-75
2021/06/04 05:54:54;;;;;;;2.65;1.33;;;;;;;26.38;61.27;94334.66;5075509;28;20198;-75
2021/06/04 05:57:20;;;;;;;1.75;1.20;;;;;;;24.94;66.39;94335.88;5075650;28;20280;-74
2021/06/04 05:59:46;;;;;;;1.30;0.88;;;;;;;25.09;66.39;94337.66;5075719;28;20788;-75
2021/06/04 06:02:12;;;;;;;4.18;1.63;;;;;;;24.86;66.47;94331.09;5075529;28;20199;-75
2021/06/04 06:04:38;;;;;;;3.13;1.60;;;;;;;24.55;68.51;94333.94;5075426;28;20195;-75
2021/06/04 06:07:06;;;;;;;2.05;1.33;;;;;;;24.46;69.51;94327.53;5075414;28;20681;-75
2021/06/04 06:09:32;;;;;;;3.63;1.63;;;;;;;24.71;68.84;94334.66;5075616;28;20199;-74
2021/06/04 06:11:58;;;;;;;3.40;1.40;;;;;;;25.62;64.47;94335.13;5075358;28;20600;-75
2021/06/04 06:14:24;;;;;;;4.78;1.73;;;;;;;26.38;60.81;94331.97;5075321;28;20285;-75
2021/06/04 06:16:49;;;;;;;3.67;1.42;;;;;;;25.95;61.64;94330.03;5075454;28;20226;-74
2021/06/04 06:19:17;;;;;;;4.78;1.52;;;;;;;25.59;62.25;94342.91;5075111;28;20681;-74
2021/06/04 06:21:46;;;;;;;4.70;1.60;;;;;;;24.55;68.38;94336.63;5075283;28;20198;-74
2021/06/04 06:24:14;;;;;;;5.75;1.60;;;;;;;24.41;70.01;94346.25;5074829;28;20250;-75
2021/06/04 06:26:41;;;;;;;5.10;1.60;;;;;;;23.95;69.29;94356.00;5075144;28;20209;-75
2021/06/04 06:29:08;;;;;;;3.25;1.60;;;;;;;24.31;72.83;94347.88;5075276;28;20237;-75
2021/06/04 06:31:37;;;;;;;2.80;1.35;;;;;;;24.53;72.46;94349.41;5075191;28;20206;-75
2021/06/04 06:34:05;;;;;;;5.93;1.35;;;;;;;24.68;68.88;94357.38;5074935;28;20199;-75
2021/06/04 06:36:33;;;;;;;6.28;1.70;;;;;;;24.11;67.49;94354.06;5074847;28;20688;-75
2021/06/04 06:39:01;;;;;;;4.70;1.70;;;;;;;23.84;65.29;94359.75;5074714;28;20233;-75
2021/06/04 06:41:29;;;;;;;3.72;1.67;;;;;;;23.84;69.31;94365.06;5075044;28;20210;-75
2021/06/04 06:43:55;;;;;;;5.10;1.70;;;;;;;23.19;74.61;94360.25;5074116;28;20438;-74
2021/06/04 06:46:24;;;;;;;5.05;2.10;;;;;;;23.10;74.07;94369.84;5077397;28;20282;-75
2021/06/04 06:48:50;;;;;;;10.57;1.90;;;;;;;23.44;70.12;94370.13;5074621;28;20268;-75
2021/06/04 06:51:17;;;;;;;2.50;1.60;;;;;;;23.84;64.84;94365.06;5074539;28;20202;-75
2021/06/04 06:53:43;;;;;;;4.70;1.80;;;;;;;24.06;63.44;94363.97;5074498;28;20680;-75
2021/06/04 06:56:16;;;;;;;5.32;1.80;;;;;;;24.22;62.08;94375.41;5074584;28;20203;-75
2021/06/04 06:58:45;;;;;;;7.60;1.75;;;;;;;23.87;63.85;94377.88;5074458;28;20570;-75
2021/06/04 07:01:11;;;;;;;3.03;1.70;;;;;;;24.23;64.33;94380.47;5074448;28;20199;-75
2021/06/04 07:03:39;;;;;;;4.53;1.40;;;;;;;24.54;63.14;94378.50;5074406;28;20209;-75
2021/06/04 07:06:08;;;;;;;4.32;1.63;;;;;;;24.86;62.62;94384.53;5074057;28;20587;-75
2021/06/04 07:08:34;;;;;;;3.55;1.58;;;;;;;25.26;63.15;94383.53;5074468;28;20202;-75
2021/06/04 07:11:02;;;;;;;5.53;1.70;;;;;;;24.73;60.46;94380.56;5074159;28;20221;-75
2021/06/04 07:13:28;;;;;;;4.93;1.30;;;;;;;25.05;61.61;94382.03;5074006;28;20573;-75
2021/06/04 07:15:59;;;;;;;11.30;1.63;;;;;;;24.44;60.41;94383.09;5074221;28;20205;-75
2021/06/04 07:18:27;;;;;;;5.88;1.70;;;;;;;24.17;61.10;94387.69;5073996;28;20202;-75
2021/06/04 07:20:54;;;;;;;6.38;1.55;;;;;;;24.02;64.47;94399.19;5074133;28;20248;-75
2021/06/04 07:23:22;;;;;;;3.85;1.50;;;;;;;23.80;65.45;94393.34;5074008;28;20252;-75
2021/06/04 07:25:49;;;;;;;4.07;1.60;;;;;;;23.78;64.01;94395.44;5073944;28;20198;-74
2021/06/04 07:28:17;;;;;;;6.97;1.50;;;;;;;22.80;64.17;94391.81;5073883;28;20203;-77
2021/06/04 07:30:46;;;;;;;5.00;2.00;;;;;;;22.71;65.56;94397.66;5073687;28;20205;-76
2021/06/04 07:33:17;;;;;;;2.42;1.88;;;;;;;23.39;64.84;94395.97;5074038;28;20207;-76
2021/06/04 07:35:43;;;;;;;3.63;1.52;;;;;;;23.71;65.47;94402.91;5073858;28;20203;-76
2021/06/04 07:38:10;;;;;;;6.38;2.00;;;;;;;23.54;64.74;94408.53;5073861;28;20207;-76
2021/06/04 07:40:37;;;;;;;5.43;1.90;;;;;;;23.08;64.96;94406.56;5073426;28;20234;-76
2021/06/04 07:43:07;;;;;;;4.78;2.28;;;;;;;23.12;64.55;94413.00;5073481;28;20711;-78
2021/06/04 07:45:37;;;;;;;2.20;1.33;;;;;;;23.08;65.72;94403.91;5073522;28;20650;-75
2021/06/04 07:48:03;;;;;;;3.92;1.73;;;;;;;22.84;63.85;94406.22;5073679;28;20312;-78
2021/06/04 07:50:30;;;;;;;4.93;1.80;;;;;;;22.69;67.11;94406.97;5073662;28;20585;-77
2021/06/04 07:52:57;;;;;;;5.57;1.83;;;;;;;22.36;65.08;94411.63;5073471;28;20206;-77
2021/06/04 07:55:24;;;;;;;3.78;1.50;;;;;;;22.72;67.27;94404.59;5072436;28;20201;-77
2021/06/04 07:57:50;;;;;;;4.38;1.67;;;;;;;22.94;64.72;94410.78;5073177;28;20202;-76
2021/06/04 08:00:23;;;;;;;4.43;1.90;;;;;;;22.38;66.66;94398.84;5073185;28;20233;-77
2021/06/04 08:02:49;;;;;;;3.80;1.90;;;;;;;21.93;67.54;94402.81;5073188;28;20224;-75
2021/06/04 08:05:16;;;;;;;6.88;1.77;;;;;;;22.21;69.75;94401.66;5073296;28;20535;-77
2021/06/04 08:07:43;;;;;;;2.67;1.63;;;;;;;22.16;66.07;94406.94;5072939;28;20534;-76
2021/06/04 08:10:10;;;;;;;4.07;1.58;;;;;;;22.12;66.49;94401.34;5092904;28;20205;-76
2021/06/04 08:12:38;;;;;;;4.53;1.80;;;;;;;22.27;66.41;94407.81;5093294;28;20561;-76
2021/06/04 08:15:07;;;;;;;3.70;2.00;;;;;;;22.47;66.29;94407.94;5093033;28;20198;-76
2021/06/04 08:17:33;;;;;;;4.20;1.55;;;;;;;22.51;65.45;94414.34;5093566;28;20198;-75
2021/06/04 08:20:00;;;;;;;4.75;1.80;;;;;;;22.87;67.19;94403.84;5093292;28;20252;-75
2021/06/04 08:22:26;;;;;;;4.55;1.58;;;;;;;23.01;64.10;94420.13;5093320;28;20293;-76
2021/06/04 08:24:53;;;;;;;7.05;1.75;;;;;;;22.59;65.40;94413.06;5093190;28;20225;-77
2021/06/04 08:27:19;;;;;;;4.32;1.85;;;;;;;22.90;64.93;94415.84;5093297;28;20198;-76
2021/06/04 08:29:48;;;;;;;3.47;1.70;;;;;;;22.78;65.99;94416.03;5093219;28;20246;-76
2021/06/04 08:32:16;;;;;;;2.85;1.50;;;;;;;22.70;65.43;94417.38;5093166;28;20202;-76
2021/06/04 08:34:42;;;;;;;5.15;2.05;;;;;;;22.68;66.25;94408.84;5093014;28;20198;-78
2021/06/04 08:37:09;;;;;;;9.32;1.92;;;;;;;23.11;66.79;94416.72;5093051;28;20206;-80
2021/06/04 08:39:39;;;;;;;4.63;2.20;;;;;;;22.96;64.01;94411.31;5093007;28;20226;-81
2021/06/04 08:42:22;;;;;;;6.82;2.13;;;;;;;22.91;63.99;94412.94;5092979;28;20209;-78
2021/06/04 08:44:54;;;;;;;4.68;2.00;;;;;;;23.60;64.23;94416.25;5093001;28;20209;-77
2021/06/04 08:47:23;;;;;;;4.35;1.77;;;;;;;24.09;64.95;94408.78;5092947;28;20205;-79
2021/06/04 08:50:21;;;;;;;8.23;2.00;;;;;;;23.59;61.59;94403.19;5086263;28;20202;-81
2021/06/04 08:52:56;;;;;;;7.13;1.65;;;;;;;23.94;64.01;94407.72;5073009;28;20198;-84
2021/06/04 08:55:33;;;;;;;6.13;2.28;;;;;;;23.95;63.18;94398.66;5072817;28;20206;-77
2021/06/04 08:58:15;;;;;;;3.88;1.90;;;;;;;23.73;60.49;94401.59;5072619;28;20304;-79
2021/06/04 09:00:48;;;;;;;3.35;1.60;;;;;;;23.56;60.20;94406.38;5072477;28;20230;-79
2021/06/04 09:03:22;;;;;;;4.05;1.90;;;;;;;23.46;61.87;94397.34;5072777;28;20198;-79
2021/06/04 09:05:52;;;;;;;3.80;1.73;;;;;;;23.48;60.91;94389.03;5072779;28;20198;-76
2021/06/04 09:08:23;;;;;;;8.35;2.00;;;;;;;24.00;60.98;94390.66;5075865;28;20203;-80
2021/06/04 09:10:53;;;;;;;5.32;1.80;;;;;;;24.18;61.26;94391.16;5076438;28;20245;-79
2021/06/04 09:13:23;;;;;;;4.72;2.05;;;;;;;24.05;62.72;94394.38;5076435;28;20212;-82
2021/06/04 09:15:54;;;;;;;8.93;1.55;;;;;;;24.06;61.58;94394.09;5076428;28;20209;-75
2021/06/04 09:18:25;;;;;;;5.65;1.63;;;;;;;24.32;61.41;94402.06;5076446;28;20203;-81
2021/06/04 09:20:56;;;;;;;2.53;1.38;;;;;;;24.18;62.59;94399.16;5076269;28;20241;-80
2021/06/04 09:23:26;;;;;;;8.32;1.65;;;;;;;24.18;63.72;94402.63;5076029;28;20237;-82
2021/06/04 09:25:53;;;;;;;2.88;1.70;;;;;;;24.35;60.32;94391.66;5076884;28;20210;-77
2021/06/04 09:28:31;;;;;;;4.07;1.63;;;;;;;24.24;60.92;94392.75;5076318;28;20199;-80
2021/06/04 09:30:59;;;;;;;3.97;1.80;;;;;;;24.52;62.03;94396.66;5075120;28;20441;-79
2021/06/04 09:33:29;;;;;;;4.20;1.85;;;;;;;24.55;58.43;94385.47;5076007;28;20677;-79
2021/06/04 09:36:07;;;;;;;4.13;1.85;;;;;;;25.06;59.81;94384.44;5075958;28;20289;-79
2021/06/04 09:38:38;;;;;;;2.88;1.50;;;;;;;25.65;59.44;94389.94;5076145;28;20202;-79
2021/06/04 09:41:16;;;;;;;3.72;1.98;;;;;;;26.26;57.70;94382.44;5076050;28;20230;-80
2021/06/04 09:43:44;;;;;;;3.72;1.65;;;;;;;26.13;58.20;94384.72;5075771;28;20203;-80
2021/06/04 09:46:13;;;;;;;6.68;2.20;;;;;;;25.76;55.00;94396.78;5075737;28;20210;-78
2021/06/04 09:48:42;;;;;;;3.70;1.50;;;;;;;25.93;58.22;94391.03;5075669;28;20213;-78
2021/06/04 09:51:13;;;;;;;8.85;1.75;;;;;;;26.35;55.04;94402.16;5075991;28;20203;-76
2021/06/04 09:53:40;;;;;;;11.05;1.80;;;;;;;25.74;56.40;94406.97;5076004;28;20228;-80
2021/06/04 09:56:18;;;;;;;3.30;2.13;;;;;;;26.35;56.02;94400.28;5075909;28;20298;-77
2021/06/04 09:58:51;;;;;;;4.45;1.50;;;;;;;26.74;53.93;94393.97;5075657;28;20201;-80
2021/06/04 10:01:18;;;;;;;8.77;1.80;;;;;;;26.47;56.86;94389.16;5075513;28;20711;-80
2021/06/04 10:03:48;;;;;;;6.00;2.08;;;;;;;25.40;57.26;94381.03;5075442;28;20789;-78
2021/06/04 10:06:27;;;;;;;4.45;1.80;;;;;;;26.07;56.84;94388.53;5075446;28;20577;-80
2021/06/04 10:08:55;;;;;;;3.95;1.63;;;;;;;25.51;58.96;94380.94;5075526;28;20206;-75
2021/06/04 10:11:28;;;;;;;3.58;1.65;;;;;;;25.39;54.43;94392.00;5075382;28;20202;-79
2021/06/04 10:14:01;;;;;;;6.65;1.55;;;;;;;25.46;57.25;94381.78;5075680;28;20214;-79
2021/06/04 10:17:00;;;;;;;2.33;1.23;;;;;;;25.46;55.07;94393.28;5075369;28;20684;-76
2021/06/04 10:19:39;;;;;;;6.25;1.63;;;;;;;25.48;55.94;94395.69;5074055;28;20236;-77
2021/06/04 10:22:16;;;;;;;8.48;1.40;;;;;;;24.79;59.72;94394.72;5075299;28;20214;-77
2021/06/04 10:24:48;;;;;;;4.80;1.67;;;;;;;24.97;58.39;94402.13;5075184;28;20280;-76
2021/06/04 10:27:18;;;;;;;2.55;1.42;;;;;;;24.91;58.28;94396.00;5075252;28;20198;-78
2021/06/04 10:29:58;;;;;;;4.63;1.60;;;;;;;25.15;55.04;94399.88;5074975;28;20234;-79
2021/06/04 10:32:26;;;;;;;7.60;1.63;;;;;;;24.92;56.44;94399.47;5073465;28;20206;-79
2021/06/04 10:35:04;;;;;;;4.53;1.90;;;;;;;25.18;58.86;94393.97;5073801;28;20565;-78
2021/06/04 10:37:38;;;;;;;3.25;1.60;;;;;;;24.82;56.87;94396.84;5074850;28;20202;-80
2021/06/04 10:40:13;;;;;;;6.25;1.98;;;;;;;24.70;59.44;94403.31;5074911;28;20581;-77
2021/06/04 10:42:51;;;;;;;6.25;1.65;;;;;;;24.64;59.12;94401.72;5074868;28;20276;-78
2021/06/04 10:45:21;;;;;;;4.65;1.58;;;;;;;25.19;57.11;94395.56;5074752;28;20199;-76
2021/06/04 10:48:12;;;;;;;7.18;1.83;;;;;;;25.09;59.64;94397.22;5075176;28;20214;-76
2021/06/04 10:50:40;;;;;;;4.22;1.80;;;;;;;25.39;60.73;94390.13;5077317;28;20203;-76
2021/06/04 10:53:20;;;;;;;5.38;1.88;;;;;;;25.38;57.84;94385.88;5073763;28;20434;-77
2021/06/04 10:55:54;;;;;;;4.63;1.98;;;;;;;25.56;57.00;94388.94;5074853;28;20199;-77
2021/06/04 10:58:28;;;;;;;8.13;1.63;;;;;;;25.19;56.03;94390.22;5074717;28;20213;-75
2021/06/04 11:00:57;;;;;;;4.75;1.70;;;;;;;25.18;57.59;94388.63;5074597;28;20223;-78
2021/06/04 11:03:32;;;;;;;4.90;1.85;;;;;;;26.02;62.64;94391.25;5074528;28;20210;-77
2021/06/04 11:06:05;;;;;;;6.30;1.80;;;;;;;26.90;56.30;94383.84;5074341;28;20194;-77
2021/06/04 11:08:46;;;;;;;2.65;1.33;;;;;;;26.83;54.32;94380.75;5074518;28;20249;-76
2021/06/04 11:11:26;;;;;;;6.43;1.70;;;;;;;27.21;54.26;94386.13;5074351;28;20301;-77
2021/06/04 11:14:06;;;;;;;3.97;1.83;;;;;;;26.22;52.62;94377.66;5074108;28;20194;-77
2021/06/04 11:16:40;;;;;;;4.40;1.63;;;;;;;26.76;55.82;94374.91;5074333;28;20260;-78
2021/06/04 11:19:14;;;;;;;4.25;2.08;;;;;;;26.91;56.97;94366.72;5074097;28;20199;-75
2021/06/04 11:21:47;;;;;;;8.93;1.92;;;;;;;26.20;54.22;94374.47;5074145;28;20654;-77
2021/06/04 11:24:17;;;;;;;4.55;1.60;;;;;;;25.23;58.55;94364.53;5073734;28;20231;-77
2021/06/04 11:26:46;;;;;;;10.20;1.98;;;;;;;25.87;58.52;94372.63;5074245;28;20202;-77
2021/06/04 11:29:15;;;;;;;6.60;1.85;;;;;;;26.53;56.23;94371.97;5073918;28;20199;-76
2021/06/04 11:31:55;;;;;;;5.57;1.77;;;;;;;26.16;56.63;94365.41;5073962;28;20209;-78
2021/06/04 11:34:37;;;;;;;9.45;1.60;;;;;;;26.53;53.90;94366.63;5073814;28;20195;-77
2021/06/04 11:37:03;;;;;;;5.43;1.95;;;;;;;26.69;53.20;94363.75;5073985;28;20199;-77
2021/06/04 11:39:35;;;;;;;5.28;1.70;;;;;;;26.14;53.46;94351.50;5073762;28;20226;-77
2021/06/04 11:42:06;;;;;;;2.83;1.70;;;;;;;27.06;52.26;94354.97;5073886;28;20199;-77